»·PEaware :: USC243 KCHD-KLAS

USC243 :: KCHD-KLAS

FLIGHT INFORMATION

Flight Status: Arrived
Operator: Unknown
More flights by this operator :: More flights under this callsign
Pilot: Andy P. (22680)
Aircraft: GATES LEARJET LEARJET 35/36
(LJ35)
More flights by this aircraft type
Origin: KCHD Chandler Mun
United States
Destination: KLAS McCarran Intl
United States
More flights between these airports :: More routes between these airports
Route: TFD IGM TYSSN5
File this flight plan on PilotEdge
Remarks:
Altitude:
(Current/Filed)
30,000ft
Speed:
(Current/Filed)
465kts
Departed: 30-Sep-19 03:31 PM
Arrived: 30-Sep-19 04:21 PM
Distance/Time
Traveled:
235nm/0:50
Distance/Time
To Go:
Arrived

Flight Plot

Page will automatically refresh every two minutes.

Flight plan parsing failed; only flown route is shown


Map Options




Map Legend


Flown Route
Filed Route
Departure Airport
Arrival Airport
Navaid (VOR, NDB)
Fix

Horizontal Profiles

Position Reports

Time Latitude Longitude Heading Altitude Ground
Speed
30-Sep-19 15:13 33.272060 -111.812915 88 1246ft 0kts
30-Sep-19 15:14 33.272060 -111.812915 88 1246ft 0kts
30-Sep-19 15:15 33.272060 -111.812915 88 1246ft 0kts
30-Sep-19 15:16 33.272060 -111.812915 88 1246ft 0kts
30-Sep-19 15:17 33.272060 -111.812915 88 1246ft 0kts
30-Sep-19 15:18 33.272060 -111.812915 88 1246ft 0kts
30-Sep-19 15:19 33.272060 -111.812915 88 1246ft 0kts
30-Sep-19 15:20 33.272060 -111.812915 88 1246ft 0kts
30-Sep-19 15:21 33.272060 -111.812915 88 1246ft 0kts
30-Sep-19 15:22 33.272060 -111.812915 88 1246ft 0kts
30-Sep-19 15:23 33.272060 -111.812915 88 1246ft 0kts
30-Sep-19 15:24 33.272060 -111.812915 88 1246ft 0kts
30-Sep-19 15:25 33.272060 -111.812912 88 1246ft 0kts
30-Sep-19 15:26 33.271647 -111.811218 60 1246ft 14kts
30-Sep-19 15:27 33.272255 -111.809384 140 1246ft 0kts
30-Sep-19 15:28 33.272253 -111.809382 140 1246ft 0kts
30-Sep-19 15:29 33.272250 -111.809380 140 1246ft 0kts
30-Sep-19 15:30 33.265982 -111.817298 230 1256ft 146kts
30-Sep-19 15:31 33.225297 -111.841931 197 3398ft 184kts
30-Sep-19 15:32 33.173555 -111.864641 198 5115ft 205kts
30-Sep-19 15:33 33.117050 -111.889604 201 6729ft 229kts
30-Sep-19 15:34 33.050661 -111.902610 183 8796ft 264kts
30-Sep-19 15:35 32.971973 -111.902601 181 10978ft 314kts
30-Sep-19 15:36 32.881198 -111.912753 202 13629ft 329kts
30-Sep-19 15:37 32.860554 -112.003308 297 17357ft 361kts
30-Sep-19 15:38 32.961549 -112.040284 358 19777ft 433kts
30-Sep-19 15:39 33.081142 -112.058123 321 21533ft 437kts
30-Sep-19 15:40 33.179448 -112.151307 318 22801ft 467kts
30-Sep-19 15:41 33.287435 -112.241573 319 24425ft 478kts
30-Sep-19 15:42 33.396877 -112.332890 318 25655ft 484kts
30-Sep-19 15:43 33.507949 -112.425886 318 26553ft 489kts
30-Sep-19 15:44 33.620109 -112.520090 318 27263ft 493kts
30-Sep-19 15:45 33.732812 -112.615067 318 27818ft 499kts
30-Sep-19 15:46 33.845863 -112.710597 318 29018ft 494kts
30-Sep-19 15:47 33.958294 -112.805967 317 29807ft 490kts
30-Sep-19 15:48 34.067421 -112.898802 317 29850ft 479kts
30-Sep-19 15:49 34.176528 -112.991988 317 29860ft 483kts
30-Sep-19 15:50 34.286621 -113.086289 317 29897ft 487kts
30-Sep-19 15:51 34.397220 -113.181311 317 29898ft 488kts
30-Sep-19 15:52 34.507832 -113.276673 317 29898ft 488kts
30-Sep-19 15:53 34.618012 -113.371979 317 29871ft 487kts
30-Sep-19 15:54 34.728235 -113.467637 317 29900ft 486kts
30-Sep-19 15:55 34.838369 -113.563553 316 29893ft 486kts
30-Sep-19 15:56 34.948117 -113.659444 316 29889ft 485kts
30-Sep-19 15:57 35.057752 -113.755566 316 29889ft 485kts
30-Sep-19 15:58 35.161514 -113.846623 315 27946ft 434kts
30-Sep-19 15:59 35.262819 -113.936320 316 24654ft 464kts
30-Sep-19 16:00 35.360209 -114.026407 313 21361ft 394kts
30-Sep-19 16:01 35.445475 -114.106180 313 19153ft 390kts
30-Sep-19 16:02 35.533388 -114.188131 315 17011ft 403kts
30-Sep-19 16:03 35.623395 -114.272141 316 14839ft 408kts
30-Sep-19 16:04 35.698369 -114.342151 315 13036ft 305kts
30-Sep-19 16:05 35.771353 -114.396990 334 11763ft 304kts
30-Sep-19 16:06 35.850666 -114.434121 334 11243ft 304kts
30-Sep-19 16:07 35.924970 -114.468874 334 10739ft 273kts
30-Sep-19 16:08 35.993612 -114.501061 335 10267ft 254kts
30-Sep-19 16:09 36.043629 -114.556934 280 9680ft 239kts
30-Sep-19 16:10 36.056118 -114.629475 279 8953ft 202kts
30-Sep-19 16:11 36.068130 -114.698136 279 8290ft 208kts
30-Sep-19 16:12 36.074885 -114.767633 270 7818ft 196kts
30-Sep-19 16:13 36.075074 -114.830494 266 6898ft 175kts
30-Sep-19 16:14 36.073941 -114.889137 267 5876ft 167kts
30-Sep-19 16:15 36.073840 -114.946117 267 5007ft 163kts
30-Sep-19 16:16 36.074011 -114.998995 266 4109ft 139kts
30-Sep-19 16:17 36.073955 -115.042788 265 3475ft 120kts
30-Sep-19 16:18 36.073721 -115.087229 267 2876ft 128kts
30-Sep-19 16:19 36.073726 -115.130473 266 2184ft 92kts
30-Sep-19 16:20 36.074533 -115.145457 298 2184ft 24kts
30-Sep-19 16:21 36.075635 -115.146581 358 2184ft 20kts
30-Sep-19 16:22 36.077534 -115.138942 90 2184ft 39kts
30-Sep-19 16:23 36.077886 -115.126235 12 2184ft 18kts
30-Sep-19 16:24 36.082942 -115.125541 91 2184ft 10kts
30-Sep-19 16:25 36.082941 -115.125457 87 2184ft 0kts

Navigation Log

Ident Type
Flight plan parsing failed, navigation log unavailable